KJWN

John C Tune Airport

Nashville, Tennessee, USA
METAR KJWN 171355Z AUTO 00000KT 1/4SM FG VV002 00/00 A3022 RMK A01
Observed Flight Rules
Dec-17 @ 13:55 UTC (34 minutes ago) Instrument Flight Rules
Visibility Clouds Conditions
1/4 miles
  • Vertical visibility at 200' AGL
  • Fog
Temperatures Readings
Current 0°C / 32°F
Dewpoint 0°C / 32°F
Humidity 100%
Altimeter 30.22" Hg
Pressure 1023 hPa
Elevation 151
METAR KJWN 171355Z AUTO 00000KT 1/4SM FG VV002 00/00 A3022 RMK A01
Observed Flight Rules
Dec-17 @ 13:55 UTC
(34 minutes ago)
LIFR
Clouds
  • Vertical visibility at 200' AGL
Conditions
  • Fog
Temperature Dewpoint
0°C / 32°F 0°C / 32°F
Humidity Altimeter Pressure
100% 30.22" Hg 1023 hPa